Dry Tortugas National Park, FL

03:22 AM EST am 26. Januar 2015 (GMT -0500)
Dade County-Homestead Regional | Change Station
CLOSE
Current Station
Flughafen
Location: Homestead AFB,
Höhe: 7 ft
Wetterstationen in der Umgebung

Höhe 7 ft 25.49 °N, 80.38 °W | Updated 24 minutes ago

Wolkig
Wolkig
51 °F
gefühlte 51 °F
N
0
Wind Wechselnd Wind aus Nord

Heute
Max. -- | schwach -- °F
--% Regenrisiko
Gestern
Max. -- | schwach -- °F
Precip. -- inch
7:10 AM 6:07 PM
Erstes Viertel, 41% visible
Druck 29.98 inch
Sichtweite 10.0 Meilen
Wolken Wolkig 4300 ft
Taupunkt 49 °F
Feuchtigkeit 94%
Regen 0.00 inch
Schneehöhe Nicht verfügbar..
UV 0 von 12
Pollen 7.20 von 12
Luftqualität Nicht verfügbar..
Flu Activity Nicht verfügbar..
METAR KHST 260758Z AUTO 00000KT 10SM BKN043 11/10 A2997 RMK AO2 SLP152 T01060096

More Conditions Fewer Conditions

Druck 29.98 inch
Sichtweite 10.0 Meilen
Wolken Wolkig 4300 ft
Taupunkt 49 °F
Feuchtigkeit 94%
Regen 0.00 inch
Schneehöhe Nicht verfügbar..
UV 0 von 12
Pollen 7.20 von 12
Luftqualität Nicht verfügbar..
Flu Activity Nicht verfügbar..
METAR KHST 260758Z AUTO 00000KT 10SM BKN043 11/10 A2997 RMK AO2 SLP152 T01060096

More Conditions Fewer Conditions

10-Day Weather Forecast

Almanac

Astronomie

Jan. 26, 2015 Aufgang Untergang
Genaue Zeit
Bürgerliche Dämmerung
Nautische Dämmerung
Astronomische Dämmerung
Mond
Länge des sichtbaren Lichts
Tageslänge
Tomorrow will be .
, % of the Moon is Illuminated

Heutige Rekorde

State Highs State Lows

Community

WunderPhotos

Upload Photos

1,790,163 Fotos hochgeladen!

WunderBlogs® & News

Nearby

Luftqualität

  Luftqualität LQ Index Schadstoff
Not available.

Schneehöhe

Station Depth Höhe

Erdbebenaktivität

Stadt Distance Mag. Time & Date
Minimum magnitude displayed is 2.5.

küstennahe Wassertemperaturen

Ort Temperatur

Wetterstationen in der Umgebung